Cordele, Georgia
Current Conditions -  °F | °C
As of 11:55 AM on Saturday 22 Nov 2014 (Local Time) from KCKF Reporting Station
Overcast Overcast  
Wind Chill: 17°   Ceiling: 7000
Heat Index: 17°   Visibility: 10mi
Dew Point:   Wind: 9mph
Humidity: 49%   Direction: 90°E
Pressure: 30.39"   Gusts: NA
Location:  31.97°N, 83.78°W
Report Text: KCKF 221655Z AUTO 09008KT 10SM SCT060 OVC070 17/06 A3039 RMK AO2 T01710063
Loading
Personal Weather Stations






























Interactive Weather Map New forecast layout! Learn more

10-Day Weather Forecast

Advertisements
Track Severe Weather on mobile